Time;durP1;ratioP1;P1;durP2;ratioP2;P2;SDS_P1;SDS_P2;PMS_P1;PMS_P2;Temp;Humidity;BMP_temperature;BMP_pressure;BME280_temperature;BME280_humidity;BME280_pressure;Samples;Min_cycle;Max_cycle;Signal;HPM_P1;HPM_P2
2023/03/05 00:00:04;;;;;;;8.10;3.00;;;;;;;6.18;53.04;101515.31;690706;28;1404;-83
2023/03/05 00:00:33;;;;;;;6.57;2.90;;;;;;;6.11;53.03;101519.22;688546;28;1357;-83
2023/03/05 00:00:54;;;;;;;8.17;3.33;;;;;;;5.99;52.89;101507.34;687954;28;1261;-84
2023/03/05 00:01:21;;;;;;;7.93;3.10;;;;;;;5.99;53.17;101519.41;685484;28;989;-84
2023/03/05 00:01:42;;;;;;;5.90;2.65;;;;;;;5.87;53.43;101504.03;685425;28;1118;-84
2023/03/05 00:02:03;;;;;;;4.82;2.58;;;;;;;5.93;53.50;101513.84;688201;28;1453;-84
2023/03/05 00:02:23;;;;;;;5.68;2.97;;;;;;;5.87;53.68;101498.84;693667;28;1061;-84
2023/03/05 00:02:44;;;;;;;5.60;3.03;;;;;;;5.92;53.57;101506.88;688015;28;1168;-83
2023/03/05 00:03:05;;;;;;;5.30;2.88;;;;;;;5.89;53.33;101507.59;688112;28;1277;-84
2023/03/05 00:03:25;;;;;;;5.05;2.60;;;;;;;5.89;53.63;101507.59;688130;28;1082;-83
2023/03/05 00:03:46;;;;;;;6.60;2.80;;;;;;;5.87;53.61;101502.34;690765;28;1456;-84
2023/03/05 00:04:11;;;;;;;5.82;2.60;;;;;;;5.85;53.24;101500.47;688102;28;1146;-84
2023/03/05 00:04:31;;;;;;;6.97;2.90;;;;;;;5.95;53.77;101513.13;682765;28;1437;-84
2023/03/05 00:04:52;;;;;;;6.60;3.00;;;;;;;5.98;53.60;101517.63;690815;28;1275;-83
2023/03/05 00:05:13;;;;;;;6.32;3.08;;;;;;;5.90;53.76;101504.22;690738;28;1065;-84
2023/03/05 00:05:33;;;;;;;6.13;2.83;;;;;;;5.84;53.61;101490.91;685468;28;1134;-84
2023/03/05 00:05:57;;;;;;;6.35;2.90;;;;;;;5.85;53.48;101496.19;688095;28;1399;-84
2023/03/05 00:06:19;;;;;;;7.72;3.15;;;;;;;5.89;53.29;101507.59;685297;28;1288;-84
2023/03/05 00:06:40;;;;;;;8.30;3.22;;;;;;;5.94;53.47;101506.19;682568;28;1319;-83
2023/03/05 00:07:01;;;;;;;8.02;3.25;;;;;;;5.84;53.65;101489.19;688112;28;1967;-83
2023/03/05 00:07:21;;;;;;;5.57;2.90;;;;;;;5.90;53.92;101506.81;688071;28;1183;-84
2023/03/05 00:07:42;;;;;;;5.70;2.90;;;;;;;5.84;53.72;101498.66;690808;28;1072;-84
2023/03/05 00:08:03;;;;;;;9.10;3.13;;;;;;;5.84;53.75;101493.50;690963;28;1181;-84
2023/03/05 00:08:23;;;;;;;11.32;3.67;;;;;;;5.91;53.81;101505.09;688235;28;818;-84
2023/03/05 00:08:44;;;;;;;12.20;3.95;;;;;;;5.88;53.46;101500.63;687680;28;1197;-83
2023/03/05 00:09:04;;;;;;;7.90;3.50;;;;;;;5.88;53.50;101500.63;685735;28;1227;-84
2023/03/05 00:09:25;;;;;;;6.25;3.00;;;;;;;5.87;53.78;101501.44;686107;28;1006;-84
2023/03/05 00:09:46;;;;;;;6.45;2.70;;;;;;;5.96;53.76;101506.28;687982;28;1086;-84
2023/03/05 00:10:07;;;;;;;7.30;2.70;;;;;;;5.94;53.50;101501.00;685514;28;1154;-84
2023/03/05 00:10:27;;;;;;;7.68;2.70;;;;;;;5.93;53.67;101500.91;685440;28;1008;-84
2023/03/05 00:10:57;;;;;;;7.65;2.80;;;;;;;5.94;53.58;101503.59;687996;28;1312;-84
2023/03/05 00:11:19;;;;;;;7.43;3.20;;;;;;;5.96;53.61;101509.75;688059;28;1350;-84
2023/03/05 00:11:39;;;;;;;7.45;3.10;;;;;;;5.95;53.28;101502.78;689766;28;994;-83
2023/03/05 00:12:00;;;;;;;7.40;3.25;;;;;;;5.89;53.50;101494.63;690890;28;1259;-84
2023/03/05 00:12:21;;;;;;;6.70;3.00;;;;;;;5.97;53.54;101508.97;682681;29;1268;-84
2023/03/05 00:12:41;;;;;;;6.97;3.03;;;;;;;5.97;53.34;101511.56;682662;28;1087;-84
2023/03/05 00:13:02;;;;;;;7.50;3.10;;;;;;;5.86;53.53;101491.88;682741;29;1273;-84
2023/03/05 00:13:22;;;;;;;7.83;3.10;;;;;;;5.87;53.80;101498.84;685567;28;748;-84
2023/03/05 00:13:43;;;;;;;6.60;3.00;;;;;;;5.89;53.83;101498.13;687933;28;1422;-84
2023/03/05 00:14:05;;;;;;;7.20;3.00;;;;;;;5.95;53.83;101513.13;688145;28;1245;-84
2023/03/05 00:14:25;;;;;;;6.32;2.90;;;;;;;5.84;53.60;101493.50;685471;28;1008;-84
2023/03/05 00:14:46;;;;;;;5.72;2.92;;;;;;;5.84;53.70;101488.31;688102;28;1202;-83
2023/03/05 00:15:08;;;;;;;5.30;2.75;;;;;;;5.85;53.79;101495.28;682902;29;1088;-84
2023/03/05 00:15:31;;;;;;;5.95;2.78;;;;;;;5.86;53.68;101497.06;688118;28;1114;-84
2023/03/05 00:15:52;;;;;;;6.32;2.60;;;;;;;5.88;53.70;101498.03;688006;28;1240;-84
2023/03/05 00:16:15;;;;;;;5.30;2.70;;;;;;;5.91;53.79;101498.22;690816;28;1321;-84
2023/03/05 00:16:35;;;;;;;4.90;2.50;;;;;;;5.93;53.73;101509.56;685299;28;1371;-84
2023/03/05 00:16:56;;;;;;;4.40;2.60;;;;;;;5.86;53.63;101489.28;687938;28;772;-84
2023/03/05 00:17:17;;;;;;;6.00;2.70;;;;;;;5.91;53.94;101507.69;688059;28;1321;-83
2023/03/05 00:17:37;;;;;;;5.65;2.60;;;;;;;5.84;53.70;101493.50;685321;28;1400;-84
2023/03/05 00:17:58;;;;;;;4.88;2.50;;;;;;;5.93;54.14;101501.81;680155;28;1145;-84
2023/03/05 00:18:19;;;;;;;3.80;2.43;;;;;;;5.84;53.74;101483.13;680182;29;1293;-84
2023/03/05 00:18:40;;;;;;;6.57;2.78;;;;;;;5.92;53.80;101497.44;685381;28;1040;-84
2023/03/05 00:19:01;;;;;;;8.32;3.00;;;;;;;5.81;53.94;101483.84;688176;28;903;-84
2023/03/05 00:19:21;;;;;;;8.30;2.93;;;;;;;5.79;54.12;101487.13;688125;28;1138;-84
2023/03/05 00:19:42;;;;;;;6.88;2.70;;;;;;;5.90;53.89;101493.88;690514;28;1051;-84
2023/03/05 00:20:03;;;;;;;7.85;2.80;;;;;;;5.87;54.05;101485.88;685515;28;1339;-84
2023/03/05 00:20:24;;;;;;;8.18;2.95;;;;;;;5.91;53.90;101492.16;688171;28;1270;-84
2023/03/05 00:20:45;;;;;;;7.05;3.30;;;;;;;5.86;53.88;101486.69;685291;28;1186;-84
2023/03/05 00:21:27;;;;;;;6.65;3.35;;;;;;;5.94;53.93;101501.00;685417;28;1331;-83
2023/03/05 00:21:48;;;;;;;8.85;3.40;;;;;;;5.84;53.99;101477.94;687992;28;1028;-84
2023/03/05 00:22:08;;;;;;;8.83;3.37;;;;;;;5.94;54.09;101490.63;688133;28;1212;-84
2023/03/05 00:22:29;;;;;;;5.57;3.10;;;;;;;5.96;53.83;101494.19;690729;28;1172;-84
2023/03/05 00:22:50;;;;;;;8.03;3.90;;;;;;;5.92;54.24;101494.84;685379;28;1163;-84
2023/03/05 00:23:11;;;;;;;9.27;4.00;;;;;;;5.87;54.20;101485.88;685392;28;1086;-84
2023/03/05 00:23:31;;;;;;;10.00;4.03;;;;;;;5.80;54.41;101484.66;682790;28;1258;-84
2023/03/05 00:23:53;;;;;;;12.67;3.77;;;;;;;5.94;54.12;101494.94;685317;28;1251;-84
2023/03/05 00:24:17;;;;;;;10.18;3.33;;;;;;;5.85;53.96;101482.31;680172;29;1148;-83
2023/03/05 00:24:37;;;;;;;9.48;3.40;;;;;;;5.89;54.29;101490.38;687820;28;1122;-83
2023/03/05 00:24:58;;;;;;;4.80;3.17;;;;;;;5.82;54.28;101484.75;688249;28;843;-84
2023/03/05 00:25:19;;;;;;;5.13;3.40;;;;;;;5.84;54.12;101483.13;688143;28;1024;-84
2023/03/05 00:25:40;;;;;;;5.28;3.20;;;;;;;5.81;54.41;101477.75;688168;28;1079;-83
2023/03/05 00:26:02;;;;;;;6.28;2.83;;;;;;;5.81;54.49;101482.94;685588;28;1366;-84
2023/03/05 00:26:25;;;;;;;5.45;2.53;;;;;;;5.78;54.45;101472.41;691296;28;1224;-84
2023/03/05 00:26:46;;;;;;;8.00;2.70;;;;;;;5.84;54.41;101477.94;688433;28;1024;-84
2023/03/05 00:27:06;;;;;;;8.23;3.03;;;;;;;5.81;54.31;101475.16;691322;28;1906;-84
2023/03/05 00:27:27;;;;;;;8.02;3.40;;;;;;;5.80;54.36;101475.97;685897;28;1196;-84
2023/03/05 00:27:48;;;;;;;5.47;3.08;;;;;;;5.83;54.41;101479.63;683314;29;1065;-84
2023/03/05 00:28:09;;;;;;;5.77;3.10;;;;;;;5.80;54.57;101470.78;688631;28;1274;-84
2023/03/05 00:28:29;;;;;;;6.40;2.90;;;;;;;5.85;54.65;101479.72;688609;28;1086;-84
2023/03/05 00:28:51;;;;;;;6.95;2.80;;;;;;;5.86;54.68;101481.50;685800;28;1288;-84
2023/03/05 00:29:17;;;;;;;7.00;2.67;;;;;;;5.77;54.31;101470.63;683252;28;1114;-84
2023/03/05 00:29:38;;;;;;;7.05;2.78;;;;;;;5.83;54.14;101481.34;682399;28;1456;-84
2023/03/05 00:29:59;;;;;;;10.82;3.33;;;;;;;5.79;54.70;101467.31;688089;28;1320;-83
2023/03/05 00:30:19;;;;;;;11.93;3.60;;;;;;;5.76;54.29;101464.53;685845;28;1072;-84
2023/03/05 00:30:40;;;;;;;11.00;3.57;;;;;;;5.86;54.41;101478.94;682998;28;1147;-84
2023/03/05 00:31:01;;;;;;;7.57;3.20;;;;;;;5.79;54.66;101459.56;688667;28;961;-84
2023/03/05 00:31:25;;;;;;;6.55;3.20;;;;;;;5.86;54.69;101471.16;688719;28;803;-84
2023/03/05 00:31:47;;;;;;;9.10;3.53;;;;;;;5.81;54.32;101468.28;688452;28;1363;-84
2023/03/05 00:32:07;;;;;;;9.38;3.60;;;;;;;5.87;54.90;101475.53;680676;28;1222;-84
2023/03/05 00:32:28;;;;;;;8.10;3.35;;;;;;;5.91;54.47;101471.41;685818;28;1231;-83
2023/03/05 00:32:48;;;;;;;5.87;3.23;;;;;;;5.85;54.31;101465.09;685873;28;1133;-84
2023/03/05 00:33:11;;;;;;;6.07;3.40;;;;;;;5.85;54.24;101459.91;683217;28;1077;-84
2023/03/05 00:33:32;;;;;;;7.30;3.50;;;;;;;5.88;54.08;101461.75;683314;29;1092;-83
2023/03/05 00:33:54;;;;;;;5.60;3.10;;;;;;;5.83;54.40;101455.44;685756;28;1096;-84
2023/03/05 00:34:17;;;;;;;6.15;3.10;;;;;;;5.83;54.22;101455.44;683226;29;1025;-83
2023/03/05 00:34:38;;;;;;;6.72;3.38;;;;;;;5.86;54.49;101453.03;688531;28;1009;-83
2023/03/05 00:34:59;;;;;;;6.82;3.40;;;;;;;5.84;53.88;101458.09;691153;28;1096;-83
2023/03/05 00:35:19;;;;;;;5.63;3.20;;;;;;;5.91;54.39;101474.00;691252;28;1210;-84
2023/03/05 00:35:45;;;;;;;5.03;3.00;;;;;;;5.89;54.43;101471.31;691121;28;1015;-84
2023/03/05 00:36:06;;;;;;;6.05;3.10;;;;;;;5.90;54.49;101478.31;688655;28;1074;-84
2023/03/05 00:36:28;;;;;;;8.20;3.30;;;;;;;5.91;54.47;101476.59;683679;28;1217;-84
2023/03/05 00:36:51;;;;;;;7.60;2.80;;;;;;;5.85;54.11;101461.59;685696;28;961;-84
2023/03/05 00:37:11;;;;;;;7.97;3.13;;;;;;;5.82;54.15;101464.03;687559;28;783;-84
2023/03/05 00:37:32;;;;;;;5.45;3.00;;;;;;;5.83;54.34;101464.09;689923;28;901;-84
2023/03/05 00:37:52;;;;;;;5.23;3.07;;;;;;;5.83;54.20;101466.69;691305;28;1305;-84
2023/03/05 00:38:13;;;;;;;6.20;3.05;;;;;;;5.85;54.06;101464.19;693946;28;1163;-84
2023/03/05 00:38:34;;;;;;;7.50;3.25;;;;;;;5.84;54.33;101465.88;688560;28;1339;-84
2023/03/05 00:38:55;;;;;;;8.63;3.20;;;;;;;5.85;54.27;101464.19;688574;28;1159;-84
2023/03/05 00:39:17;;;;;;;8.07;3.22;;;;;;;5.86;54.21;101466.88;685876;28;1266;-84
2023/03/05 00:39:38;;;;;;;8.68;2.92;;;;;;;5.85;53.92;101469.38;688437;28;1399;-83
2023/03/05 00:39:58;;;;;;;8.70;2.75;;;;;;;5.91;54.42;101474.91;688591;28;1211;-84
2023/03/05 00:40:19;;;;;;;7.25;2.70;;;;;;;5.86;54.45;101472.06;688492;28;1352;-84
2023/03/05 00:40:40;;;;;;;5.57;2.90;;;;;;;5.81;54.33;101460.53;683127;28;1181;-84
2023/03/05 00:41:02;;;;;;;5.68;3.10;;;;;;;5.88;54.46;101477.31;688646;28;1401;-84
2023/03/05 00:41:23;;;;;;;6.68;3.25;;;;;;;5.86;54.57;101468.56;688729;28;842;-84
2023/03/05 00:41:44;;;;;;;6.45;3.10;;;;;;;5.89;54.43;101473.91;691081;28;1025;-84
2023/03/05 00:42:06;;;;;;;6.57;3.40;;;;;;;5.83;54.24;101461.50;694107;28;1165;-83
2023/03/05 00:42:27;;;;;;;6.40;3.20;;;;;;;5.91;54.29;101480.09;688469;28;1513;-84
2023/03/05 00:42:48;;;;;;;6.38;2.97;;;;;;;5.78;54.60;101468.13;689340;28;994;-84
2023/03/05 00:43:08;;;;;;;6.63;2.90;;;;;;;5.84;54.57;101467.59;685866;28;1172;-84
2023/03/05 00:43:29;;;;;;;7.57;3.20;;;;;;;5.82;54.63;101471.78;691291;28;984;-84
2023/03/05 00:43:50;;;;;;;9.35;3.40;;;;;;;5.78;54.66;101459.44;691250;28;912;-84
2023/03/05 00:44:11;;;;;;;10.40;3.40;;;;;;;5.85;54.53;101469.38;691433;28;1178;-84
2023/03/05 00:44:31;;;;;;;9.32;3.20;;;;;;;5.82;54.44;101470.06;685831;28;1091;-84
2023/03/05 00:44:52;;;;;;;9.97;3.00;;;;;;;5.92;54.53;101487.06;683241;28;929;-84
2023/03/05 00:45:12;;;;;;;8.45;2.90;;;;;;;5.89;54.68;101482.59;688614;28;955;-84
2023/03/05 00:45:33;;;;;;;8.85;3.17;;;;;;;5.91;54.49;101479.19;691233;28;1294;-84
2023/03/05 00:45:54;;;;;;;8.25;3.40;;;;;;;5.80;54.35;101463.91;683103;28;1081;-84
2023/03/05 00:46:16;;;;;;;7.25;3.40;;;;;;;5.82;54.42;101464.91;685921;28;1098;-84
2023/03/05 00:46:37;;;;;;;7.45;3.28;;;;;;;5.84;54.53;101467.59;688460;28;1067;-84
2023/03/05 00:46:58;;;;;;;6.12;3.20;;;;;;;5.83;54.44;101458.03;690982;28;1919;-84
2023/03/05 00:47:18;;;;;;;5.37;3.00;;;;;;;5.85;54.42;101471.97;691224;28;1194;-84
2023/03/05 00:47:39;;;;;;;5.80;3.00;;;;;;;5.80;54.54;101469.09;683084;28;1062;-84
2023/03/05 00:48:00;;;;;;;6.15;3.10;;;;;;;5.94;54.60;101479.38;685949;28;1284;-83
2023/03/05 00:48:24;;;;;;;5.97;3.10;;;;;;;5.84;54.51;101467.59;688470;28;1253;-84
2023/03/05 00:48:45;;;;;;;5.10;2.90;;;;;;;5.83;54.73;101461.50;680393;29;956;-84
2023/03/05 00:49:06;;;;;;;5.70;2.90;;;;;;;5.83;54.95;101468.41;685906;28;1017;-84
2023/03/05 00:49:26;;;;;;;6.97;2.88;;;;;;;5.88;54.43;101472.13;688588;28;1015;-83
2023/03/05 00:49:47;;;;;;;10.90;3.30;;;;;;;5.80;54.73;101463.00;693928;28;1082;-83
2023/03/05 00:50:08;;;;;;;11.93;3.50;;;;;;;5.81;55.12;101459.63;691211;28;1281;-84
2023/03/05 00:50:29;;;;;;;11.05;3.67;;;;;;;5.89;54.69;101474.81;691148;28;1213;-83
2023/03/05 00:50:50;;;;;;;6.55;3.17;;;;;;;5.79;54.71;101464.72;688324;28;1052;-84
2023/03/05 00:51:11;;;;;;;5.90;3.10;;;;;;;5.84;55.26;101467.59;685917;28;1037;-84
2023/03/05 00:51:32;;;;;;;5.53;2.77;;;;;;;5.77;54.63;101447.31;685766;28;1156;-83
2023/03/05 00:51:52;;;;;;;6.00;3.00;;;;;;;5.91;54.79;101467.16;691190;28;1211;-84
2023/03/05 00:52:13;;;;;;;6.78;2.90;;;;;;;6.01;54.48;101471.13;691346;28;1125;-84
2023/03/05 00:52:33;;;;;;;7.60;3.20;;;;;;;5.97;54.21;101461.41;683180;28;1226;-83
2023/03/05 00:52:54;;;;;;;9.13;3.10;;;;;;;6.01;54.22;101461.69;685741;28;1071;-83
2023/03/05 00:53:15;;;;;;;11.02;3.40;;;;;;;5.95;54.62;101458.72;691192;28;1323;-83
2023/03/05 00:53:36;;;;;;;10.10;3.10;;;;;;;6.02;54.52;101463.47;691196;28;1118;-83
2023/03/05 00:53:57;;;;;;;8.15;2.83;;;;;;;5.99;54.18;101460.72;685850;28;1364;-84
2023/03/05 00:54:18;;;;;;;6.30;2.70;;;;;;;5.98;54.30;101458.94;691345;28;1169;-84
2023/03/05 00:54:38;;;;;;;7.63;2.95;;;;;;;6.03;54.54;101460.06;685710;28;1339;-84
2023/03/05 00:54:59;;;;;;;9.18;3.38;;;;;;;6.06;54.14;101463.66;691222;28;1163;-84
2023/03/05 00:55:19;;;;;;;8.10;3.30;;;;;;;6.07;54.39;101460.25;693997;28;1078;-84
2023/03/05 00:55:40;;;;;;;6.40;3.08;;;;;;;6.00;54.16;101459.00;691122;28;1014;-83
2023/03/05 00:56:01;;;;;;;5.05;3.10;;;;;;;6.05;54.67;101470.53;688682;28;1171;-83
2023/03/05 00:56:22;;;;;;;4.88;3.00;;;;;;;6.08;54.33;101473.28;685947;28;827;-84
2023/03/05 00:56:43;;;;;;;6.13;2.97;;;;;;;6.03;54.01;101447.09;688301;28;1126;-83
2023/03/05 00:57:04;;;;;;;7.93;3.20;;;;;;;6.13;54.17;101463.19;688418;28;1212;-84
2023/03/05 00:57:25;;;;;;;7.95;3.13;;;;;;;6.03;54.18;101449.69;693987;28;1054;-84
2023/03/05 00:57:45;;;;;;;7.07;3.25;;;;;;;6.03;54.18;101449.69;685816;28;992;-84
2023/03/05 00:58:06;;;;;;;6.67;3.20;;;;;;;6.02;54.25;101453.09;685930;28;1361;-84
2023/03/05 00:58:26;;;;;;;9.23;3.25;;;;;;;6.03;54.36;101446.22;691289;28;1070;-84
2023/03/05 00:58:47;;;;;;;10.73;3.40;;;;;;;6.09;54.58;101450.88;691100;28;1062;-84
2023/03/05 00:59:08;;;;;;;10.07;3.07;;;;;;;6.02;54.25;101440.16;691212;28;1293;-84
2023/03/05 00:59:29;;;;;;;8.18;3.05;;;;;;;6.05;54.44;101447.22;691250;28;1340;-84
2023/03/05 00:59:50;;;;;;;7.77;3.03;;;;;;;6.00;54.58;101449.53;691255;28;1092;-84
2023/03/05 01:00:12;;;;;;;8.50;3.20;;;;;;;6.00;54.55;101436.59;691305;28;1178;-84
2023/03/05 01:00:32;;;;;;;8.23;3.17;;;;;;;6.01;54.59;101438.38;685884;28;1104;-84
2023/03/05 01:00:56;;;;;;;8.27;2.90;;;;;;;6.07;54.78;101448.19;685703;28;1143;-83
2023/03/05 01:01:17;;;;;;;7.63;2.97;;;;;;;5.99;54.41;101437.38;691234;28;1267;-84
2023/03/05 01:01:38;;;;;;;10.23;3.35;;;;;;;6.05;54.79;101454.06;690740;28;1127;-84
2023/03/05 01:01:59;;;;;;;8.93;3.75;;;;;;;6.05;54.76;101447.22;683183;28;1430;-84
2023/03/05 01:02:19;;;;;;;8.40;3.47;;;;;;;6.07;54.85;101457.66;685781;28;1234;-84
2023/03/05 01:02:40;;;;;;;6.53;3.13;;;;;;;6.00;54.77;101454.72;688508;28;1189;-84
2023/03/05 01:03:01;;;;;;;5.63;2.63;;;;;;;5.96;55.10;101432.00;688491;28;946;-84
2023/03/05 01:03:21;;;;;;;5.68;2.80;;;;;;;6.04;55.08;101445.44;688630;28;811;-83
2023/03/05 01:03:42;;;;;;;7.00;3.08;;;;;;;5.98;54.78;101433.00;686312;28;1386;-83
2023/03/05 01:04:03;;;;;;;7.63;3.20;;;;;;;6.01;54.77;101434.88;688217;28;1204;-84
2023/03/05 01:04:23;;;;;;;10.43;3.50;;;;;;;5.97;54.93;101433.81;688982;28;736;-84
2023/03/05 01:04:46;;;;;;;10.05;3.33;;;;;;;6.09;54.50;101443.09;688637;28;1083;-84
2023/03/05 01:05:09;;;;;;;11.00;3.42;;;;;;;6.03;54.65;101431.56;688398;28;1505;-84
2023/03/05 01:05:29;;;;;;;9.25;3.20;;;;;;;5.97;54.90;101432.91;685867;28;1897;-84
2023/03/05 01:05:50;;;;;;;8.85;3.08;;;;;;;5.98;54.96;101438.19;693873;28;1164;-84
2023/03/05 01:06:12;;;;;;;9.82;3.08;;;;;;;5.95;54.87;101443.19;688377;28;1363;-84
2023/03/05 01:06:33;;;;;;;10.70;3.30;;;;;;;6.07;54.71;101458.53;685702;28;1193;-83
2023/03/05 01:06:54;;;;;;;10.75;3.35;;;;;;;6.06;55.03;101446.41;685550;28;1964;-84
2023/03/05 01:07:14;;;;;;;10.80;3.30;;;;;;;5.99;55.27;101445.16;685750;28;1342;-84
2023/03/05 01:07:35;;;;;;;10.30;2.97;;;;;;;6.03;54.56;101443.66;685732;28;1131;-83
2023/03/05 01:07:56;;;;;;;7.90;2.80;;;;;;;6.01;55.13;101440.94;683322;29;833;-83
2023/03/05 01:08:18;;;;;;;6.20;2.95;;;;;;;6.09;54.77;101445.69;685712;28;1166;-83
2023/03/05 01:08:39;;;;;;;10.30;3.33;;;;;;;6.00;55.22;101427.91;688430;28;1068;-84
2023/03/05 01:09:00;;;;;;;10.53;3.23;;;;;;;6.03;55.09;101439.34;683214;28;1204;-84
2023/03/05 01:09:20;;;;;;;10.48;3.10;;;;;;;5.97;54.61;101432.91;683065;28;1171;-84
2023/03/05 01:09:41;;;;;;;9.35;3.03;;;;;;;5.97;55.08;101444.19;688366;28;1085;-84
2023/03/05 01:10:01;;;;;;;9.00;3.13;;;;;;;5.94;55.12;101425.84;685783;28;1122;-83
2023/03/05 01:10:26;;;;;;;9.50;3.53;;;;;;;6.05;55.18;101443.72;683179;28;1310;-84
2023/03/05 01:10:46;;;;;;;7.10;3.53;;;;;;;5.96;55.29;101433.72;688456;28;1270;-84
2023/03/05 01:11:17;;;;;;;7.90;3.43;;;;;;;6.01;55.13;101447.81;691309;28;1278;-84
2023/03/05 01:11:39;;;;;;;7.28;3.45;;;;;;;5.97;55.17;101432.91;685585;28;1155;-83
2023/03/05 01:11:59;;;;;;;8.52;3.60;;;;;;;5.96;55.68;101442.38;688625;28;774;-84
2023/03/05 01:12:20;;;;;;;8.53;3.40;;;;;;;6.02;55.25;101442.72;691073;28;1141;-83
2023/03/05 01:12:40;;;;;;;9.80;3.40;;;;;;;5.96;55.42;101432.00;691162;28;1193;-84
2023/03/05 01:13:01;;;;;;;8.25;3.22;;;;;;;6.00;55.65;101439.16;688693;28;736;-84
2023/03/05 01:13:22;;;;;;;7.68;3.05;;;;;;;5.96;55.25;101431.13;685913;28;908;-84
2023/03/05 01:13:42;;;;;;;6.70;2.80;;;;;;;5.98;55.48;101437.28;688317;28;1036;-84
2023/03/05 01:14:03;;;;;;;7.13;2.90;;;;;;;5.91;55.51;101425.69;691221;28;1172;-84
2023/03/05 01:14:26;;;;;;;7.32;3.17;;;;;;;6.01;55.68;101434.88;688595;28;1311;-84
2023/03/05 01:14:47;;;;;;;6.95;3.22;;;;;;;5.97;55.33;101438.09;688455;28;955;-84
2023/03/05 01:15:07;;;;;;;7.47;3.30;;;;;;;5.98;55.42;101430.44;688141;28;1302;-83
2023/03/05 01:15:28;;;;;;;6.32;3.17;;;;;;;6.06;55.27;101438.63;685845;28;1019;-84
2023/03/05 01:15:49;;;;;;;8.63;3.78;;;;;;;5.96;55.56;101421.66;688559;28;1123;-83
2023/03/05 01:16:10;;;;;;;8.05;3.58;;;;;;;5.94;55.68;101438.81;688431;28;1057;-84
2023/03/05 01:16:31;;;;;;;8.60;3.60;;;;;;;5.96;55.69;101429.41;688574;28;974;-84
2023/03/05 01:16:51;;;;;;;8.15;3.40;;;;;;;5.94;56.01;101430.16;682878;29;1347;-84
2023/03/05 01:17:12;;;;;;;9.30;3.80;;;;;;;5.91;55.75;101428.28;685919;28;1068;-84
2023/03/05 01:17:33;;;;;;;9.02;3.72;;;;;;;5.98;55.79;101438.19;688357;28;977;-84
2023/03/05 01:17:53;;;;;;;9.07;3.75;;;;;;;5.96;55.81;101441.50;691025;28;1295;-84
2023/03/05 01:18:14;;;;;;;6.97;3.30;;;;;;;5.96;55.67;101442.38;685833;28;1257;-84
2023/03/05 01:18:37;;;;;;;5.33;3.20;;;;;;;5.95;55.56;101430.22;688468;28;1195;-83
2023/03/05 01:18:58;;;;;;;7.47;3.05;;;;;;;5.93;56.12;101434.44;691281;28;866;-83
2023/03/05 01:19:19;;;;;;;9.00;3.37;;;;;;;5.95;55.88;101437.13;688462;28;1337;-84
2023/03/05 01:19:39;;;;;;;8.23;3.40;;;;;;;6.01;55.93;101435.78;688281;28;1119;-83
2023/03/05 01:20:00;;;;;;;6.40;3.40;;;;;;;5.95;56.06;101435.41;688481;28;1084;-84
2023/03/05 01:20:21;;;;;;;5.28;3.20;;;;;;;5.95;56.24;101440.59;686146;28;1198;-83
2023/03/05 01:20:42;;;;;;;6.97;3.15;;;;;;;5.90;55.84;101421.31;682991;29;1273;-84
2023/03/05 01:21:03;;;;;;;7.40;3.30;;;;;;;5.92;55.92;101422.28;688430;28;1465;-84
2023/03/05 01:21:24;;;;;;;8.40;3.47;;;;;;;5.95;56.17;101427.63;688596;28;724;-84
2023/03/05 01:21:44;;;;;;;7.75;3.35;;;;;;;5.96;56.32;101436.31;685640;28;1106;-84
2023/03/05 01:22:05;;;;;;;9.90;3.40;;;;;;;5.95;55.93;101429.34;683123;28;1090;-84
2023/03/05 01:22:25;;;;;;;11.53;3.80;;;;;;;5.96;56.23;101426.81;685684;28;1207;-84
2023/03/05 01:22:46;;;;;;;10.13;3.90;;;;;;;5.92;55.92;101422.28;688510;28;1115;-84
2023/03/05 01:23:07;;;;;;;7.45;3.85;;;;;;;5.94;56.13;101423.25;691060;28;1229;-83
2023/03/05 01:23:28;;;;;;;7.22;3.58;;;;;;;5.86;56.39;101409.88;691161;28;1186;-84
2023/03/05 01:23:49;;;;;;;8.27;3.70;;;;;;;5.89;56.60;101419.50;691156;28;992;-83
2023/03/05 01:24:09;;;;;;;7.97;3.60;;;;;;;5.86;56.38;101427.13;688488;28;1264;-83
2023/03/05 01:24:30;;;;;;;7.45;3.60;;;;;;;5.95;56.49;101424.19;690704;28;1230;-84
2023/03/05 01:24:51;;;;;;;8.82;3.67;;;;;;;5.94;56.32;101417.22;693798;28;1272;-84
2023/03/05 01:25:13;;;;;;;9.40;3.60;;;;;;;6.01;56.45;101437.44;691231;28;992;-84
2023/03/05 01:25:34;;;;;;;7.63;3.50;;;;;;;5.91;56.37;101422.19;691265;28;1000;-84
2023/03/05 01:25:59;;;;;;;6.75;3.30;;;;;;;5.98;56.60;101430.44;688503;28;922;-84
2023/03/05 01:26:20;;;;;;;7.03;3.35;;;;;;;5.91;56.37;101424.78;688398;28;1260;-84
2023/03/05 01:26:41;;;;;;;9.10;3.40;;;;;;;5.90;56.51;101421.31;682830;28;1119;-84
2023/03/05 01:27:01;;;;;;;9.35;3.28;;;;;;;5.95;56.43;101426.75;685642;28;1911;-84
2023/03/05 01:27:22;;;;;;;9.75;3.45;;;;;;;5.92;56.71;101435.25;685772;28;1218;-84
2023/03/05 01:27:43;;;;;;;8.27;3.53;;;;;;;5.99;56.48;101437.38;688399;28;1126;-84
2023/03/05 01:28:04;;;;;;;8.50;3.50;;;;;;;5.89;56.84;101419.50;688476;28;1052;-84
2023/03/05 01:28:26;;;;;;;8.50;3.80;;;;;;;5.92;57.01;101424.88;685704;28;1266;-84
2023/03/05 01:28:46;;;;;;;7.47;3.78;;;;;;;5.92;56.56;101422.28;685645;28;1322;-84
2023/03/05 01:29:07;;;;;;;6.03;3.50;;;;;;;5.98;57.06;101427.84;685764;28;1146;-83
2023/03/05 01:29:28;;;;;;;6.30;3.35;;;;;;;5.92;56.70;101424.88;691056;28;1183;-84
2023/03/05 01:29:48;;;;;;;6.70;3.30;;;;;;;5.90;56.93;101418.72;691151;28;1030;-84
2023/03/05 01:30:11;;;;;;;8.00;3.40;;;;;;;5.85;56.82;101412.38;693856;28;1099;-84
2023/03/05 01:30:32;;;;;;;9.68;3.33;;;;;;;5.94;56.81;101427.56;685855;28;993;-83
2023/03/05 01:30:52;;;;;;;11.15;3.60;;;;;;;5.91;57.04;101417.91;688308;28;1349;-84
2023/03/05 01:31:13;;;;;;;11.93;3.80;;;;;;;6.00;57.21;101433.09;693968;28;1011;-84
2023/03/05 01:31:34;;;;;;;9.07;3.70;;;;;;;5.92;57.14;101426.56;691075;28;1171;-81
2023/03/05 01:31:54;;;;;;;9.07;3.50;;;;;;;5.89;56.96;101425.59;688390;28;1060;-84
2023/03/05 01:32:15;;;;;;;8.98;3.42;;;;;;;5.90;57.57;101421.31;683041;29;1003;-84
2023/03/05 01:32:36;;;;;;;10.73;3.63;;;;;;;5.86;57.39;101419.34;690993;28;1197;-83
2023/03/05 01:32:56;;;;;;;8.30;3.50;;;;;;;5.84;57.03;101416.66;688447;28;1282;-84
2023/03/05 01:33:17;;;;;;;7.60;3.37;;;;;;;5.83;57.59;101427.81;688469;28;1130;-83
2023/03/05 01:33:38;;;;;;;6.72;3.33;;;;;;;5.83;57.07;101424.34;688307;28;993;-84
2023/03/05 01:33:59;;;;;;;7.75;3.50;;;;;;;5.75;57.62;101413.53;688429;28;1236;-84
2023/03/05 01:34:20;;;;;;;7.55;3.60;;;;;;;5.90;57.63;101436.88;688388;28;1260;-84
2023/03/05 01:34:40;;;;;;;8.55;3.70;;;;;;;5.84;57.50;101429.59;688331;28;1085;-84
2023/03/05 01:35:04;;;;;;;8.43;3.83;;;;;;;5.84;57.44;101421.84;688568;28;975;-84
2023/03/05 01:35:25;;;;;;;8.00;3.72;;;;;;;5.88;57.44;101418.63;685892;28;834;-84
2023/03/05 01:35:48;;;;;;;7.88;3.90;;;;;;;5.91;57.67;101423.09;685782;28;1099;-83
2023/03/05 01:36:12;;;;;;;7.30;3.47;;;;;;;5.84;57.50;101418.38;685656;28;1168;-84
2023/03/05 01:36:33;;;;;;;7.75;3.58;;;;;;;5.79;57.77;101425.88;685737;28;956;-84
2023/03/05 01:36:53;;;;;;;9.80;3.80;;;;;;;5.80;57.64;101413.78;687860;28;1205;-84
2023/03/05 01:37:14;;;;;;;9.90;3.90;;;;;;;5.83;57.87;101416.59;688465;28;1063;-84
2023/03/05 01:37:34;;;;;;;9.80;3.87;;;;;;;5.86;57.70;101414.16;688560;28;1039;-84
2023/03/05 01:37:55;;;;;;;6.18;3.60;;;;;;;5.83;57.87;101409.69;688413;28;1137;-83
2023/03/05 01:38:16;;;;;;;6.95;3.58;;;;;;;5.90;57.86;101418.72;685749;28;1258;-84
2023/03/05 01:38:36;;;;;;;6.88;3.50;;;;;;;5.81;57.76;101405.22;688333;28;978;-84
2023/03/05 01:38:57;;;;;;;7.20;3.80;;;;;;;5.85;57.71;101410.69;688564;28;800;-84
2023/03/05 01:39:18;;;;;;;6.50;3.78;;;;;;;5.88;57.80;101418.63;688552;28;1109;-84
2023/03/05 01:39:39;;;;;;;6.30;3.83;;;;;;;5.85;58.16;101422.75;685621;28;1279;-84
2023/03/05 01:39:59;;;;;;;6.68;3.40;;;;;;;5.83;57.98;101409.69;683220;29;830;-84
2023/03/05 01:40:25;;;;;;;5.83;3.30;;;;;;;5.93;57.93;101436.13;688491;28;1067;-84
2023/03/05 01:40:45;;;;;;;8.23;3.50;;;;;;;5.87;57.84;101415.94;688297;28;1128;-84
2023/03/05 01:41:26;;;;;;;7.80;3.70;;;;;;;5.91;58.35;101425.69;683070;29;1242;-84
2023/03/05 01:41:47;;;;;;;9.32;3.72;;;;;;;5.89;57.93;101419.50;688297;28;1137;-84
2023/03/05 01:42:07;;;;;;;12.93;3.80;;;;;;;5.87;57.96;101410.75;685702;28;1442;-84
2023/03/05 01:42:28;;;;;;;12.57;3.67;;;;;;;5.87;57.98;101426.31;691043;28;1212;-83
2023/03/05 01:42:59;;;;;;;11.50;3.80;;;;;;;5.85;58.18;101404.59;685708;28;1208;-84